Time;durP1;ratioP1;P1;durP2;ratioP2;P2;SDS_P1;SDS_P2;PMS_P1;PMS_P2;Temp;Humidity;BMP_temperature;BMP_pressure;BME280_temperature;BME280_humidity;BME280_pressure;Samples;Min_cycle;Max_cycle;Signal;HPM_P1;HPM_P2
2024/04/22 00:06:30;;;;;;;;;;;;;;;;;;;;;
2024/04/22 00:09:03;;;;;;;0.00;0.00;;;;;;;3.58;59.17;101802.03;5913593;24;20785;-74
2024/04/22 00:11:36;;;;;;;0.00;0.00;;;;;;;3.49;59.60;101795.88;6029528;23;20668;-74
2024/04/22 00:14:44;;;;;;;;;;;;;;;;;;;;;
2024/04/22 00:17:43;;;;;;;0.00;0.00;;;;;;;3.45;59.72;101804.53;6016412;23;20000;-74
2024/04/22 00:20:24;;;;;;;;;;;;;;;;;;;;;
2024/04/22 00:23:12;;;;;;;0.00;0.00;;;;;;;3.52;60.44;101821.72;6237824;22;20007;-75
2024/04/22 00:30:15;;;;;;;;;;;;;;;;;;;;;
2024/04/22 00:40:34;;;;;;;;;;;;;;;;;;;;;
2024/04/22 00:54:24;;;;;;;0.00;0.00;;;;;;;3.30;62.32;101821.59;5849441;24;20046;-74
2024/04/22 01:01:08;;;;;;;;;;;;;;;;;;;;;
2024/04/22 01:21:06;;;;;;;0.00;0.00;;;;;;;3.48;62.35;101771.72;5808825;24;20028;-74
2024/04/22 01:24:12;;;;;;;;;;;;;;;;;;;;;
2024/04/22 01:27:31;;;;;;;;;;;;;;;;;;;;;
2024/04/22 05:08:04;;;;;;;;;;;;;;;;;;;;;
2024/04/22 05:13:55;;;;;;;0.00;0.00;;;;;;;4.57;70.08;101722.19;6427642;22;20021;-80
2024/04/22 05:23:54;;;;;;;0.00;0.00;;;;;;;4.99;70.11;101742.13;6113394;23;20009;-72
2024/04/22 05:27:03;;;;;;;0.00;0.00;;;;;;;4.87;69.89;101706.59;6183496;23;20413;-74
2024/04/22 05:29:29;;;;;;;0.05;0.05;;;;;;;5.15;69.64;101738.28;6169279;23;20002;-72
2024/04/22 05:31:55;;;;;;;0.10;0.10;;;;;;;5.22;69.59;101732.91;6176763;23;20014;-72
2024/04/22 05:37:12;;;;;;;0.00;0.00;;;;;;;5.20;69.41;101710.59;6287058;22;19990;-74
2024/04/22 05:39:51;;;;;;;;;;;;;;;;;;;;;
2024/04/22 05:43:00;;;;;;;;;;;;;;;;;;;;;
2024/04/22 05:45:47;;;;;;;0.00;0.00;;;;;;;5.63;69.06;101737.53;6371944;22;20003;-73
2024/04/22 05:49:09;;;;;;;0.00;0.00;;;;;;;5.56;69.16;101693.25;6290929;22;19996;-73
2024/04/22 05:51:56;;;;;;;0.00;0.00;;;;;;;5.86;69.02;101730.97;6311814;22;20356;-74
2024/04/22 05:54:45;;;;;;;0.00;0.00;;;;;;;5.45;68.96;101655.81;6335096;22;20043;-78
2024/04/22 05:57:11;;;;;;;0.00;0.00;;;;;;;5.64;69.15;101698.50;6310197;22;20018;-82
2024/04/22 05:59:36;;;;;;;0.00;0.00;;;;;;;5.71;69.23;101704.81;6333210;22;19991;-74
2024/04/22 06:08:44;;;;;;;0.00;0.00;;;;;;;6.07;68.31;101730.03;6144189;23;20038;-74
2024/04/22 06:11:09;;;;;;;0.00;0.00;;;;;;;6.32;68.02;101749.31;6134452;23;20471;-73
2024/04/22 06:13:35;;;;;;;0.10;0.10;;;;;;;6.39;68.12;101712.13;6133549;23;20003;-74
2024/04/22 06:16:15;;;;;;;0.00;0.00;;;;;;;6.58;67.83;101690.63;6106022;22;20604;-73
2024/04/22 06:18:44;;;;;;;0.00;0.00;;;;;;;6.60;67.09;101659.47;6265266;22;20051;-78
2024/04/22 06:28:15;;;;;;;0.10;0.10;;;;;;;7.03;65.82;101666.34;6363672;22;19991;-78
2024/04/22 06:30:41;;;;;;;0.00;0.00;;;;;;;7.35;65.67;101712.72;6334134;22;20023;-77
2024/04/22 06:33:06;;;;;;;0.10;0.10;;;;;;;7.62;65.81;101756.19;6379134;22;20010;-78
2024/04/22 06:35:31;;;;;;;0.10;0.10;;;;;;;7.63;65.37;101752.44;6333071;22;20011;-77
2024/04/22 06:37:57;;;;;;;0.00;0.00;;;;;;;7.38;65.15;101712.31;6254028;22;20003;-77
2024/04/22 06:40:22;;;;;;;0.10;0.10;;;;;;;7.32;65.41;101696.84;6338119;22;20698;-77
2024/04/22 06:42:48;;;;;;;0.00;0.00;;;;;;;7.27;65.90;101704.78;6303170;22;20077;-78
2024/04/22 06:45:14;;;;;;;0.00;0.00;;;;;;;7.37;65.89;101704.34;6331920;22;20015;-76
2024/04/22 06:50:32;;;;;;;0.00;0.00;;;;;;;7.85;65.29;101707.50;6280510;22;20011;-78
2024/04/22 06:52:58;;;;;;;0.00;0.00;;;;;;;7.99;64.78;101682.97;6333526;22;20330;-77
2024/04/22 06:55:23;;;;;;;0.00;0.00;;;;;;;8.33;64.03;101691.75;6326870;22;20130;-76
2024/04/22 06:57:54;;;;;;;0.00;0.00;;;;;;;8.72;63.21;101706.19;6333133;22;19995;-78
2024/04/22 07:00:23;;;;;;;0.10;0.10;;;;;;;8.93;62.61;101706.84;6290679;22;19995;-79
2024/04/22 07:03:24;;;;;;;0.10;0.10;;;;;;;9.29;62.22;101732.53;6333409;22;20007;-78
2024/04/22 07:06:45;;;;;;;0.00;0.00;;;;;;;9.12;61.43;101643.06;6330486;22;20009;-75
2024/04/22 07:09:12;;;;;;;0.00;0.00;;;;;;;9.79;60.64;101680.50;6331605;22;20466;-77
2024/04/22 07:11:40;;;;;;;0.00;0.00;;;;;;;10.06;59.83;101650.06;6371274;22;20077;-76
2024/04/22 07:14:05;;;;;;;0.00;0.00;;;;;;;10.52;58.73;101659.50;6290146;22;20803;-77
2024/04/22 07:16:55;;;;;;;0.00;0.00;;;;;;;11.26;57.45;101691.88;6285328;22;19999;-76
2024/04/22 07:22:59;;;;;;;;;;;;;;;;;;;;;
2024/04/22 07:25:47;;;;;;;0.00;0.00;;;;;;;11.94;54.39;101658.50;6154633;23;20033;-74
2024/04/22 07:28:15;;;;;;;0.00;0.00;;;;;;;12.50;54.05;101688.84;6332442;22;20000;-77
2024/04/22 07:30:41;;;;;;;0.00;0.00;;;;;;;12.88;53.42;101687.28;6333618;22;19999;-75
2024/04/22 07:33:07;;;;;;;0.00;0.00;;;;;;;12.95;52.37;101656.91;6334413;22;20003;-77
2024/04/22 07:36:14;;;;;;;;;;;;;;;;;;;;;
2024/04/22 07:39:05;;;;;;;;;;;;;;;;;;;;;
2024/04/22 07:41:43;;;;;;;0.00;0.00;;;;;;;13.05;51.48;101624.94;6355396;22;19995;-75
2024/04/22 07:44:08;;;;;;;0.00;0.00;;;;;;;13.68;50.83;101674.13;6332854;22;20441;-77
2024/04/22 07:46:44;;;;;;;;;;;;;;;;;;;;;
2024/04/22 07:49:13;;;;;;;0.00;0.00;;;;;;;14.12;49.14;101634.72;6373976;22;19999;-76
2024/04/22 07:51:50;;;;;;;0.00;0.00;;;;;;;14.49;48.70;101653.22;6331258;22;19995;-74
2024/04/22 07:58:02;;;;;;;0.00;0.00;;;;;;;14.01;48.05;101630.22;6366426;22;20035;-78
2024/04/22 08:01:05;;;;;;;0.00;0.00;;;;;;;13.81;48.03;101669.31;6325757;22;20003;-76
2024/04/22 08:06:40;;;;;;;0.00;0.00;;;;;;;12.88;48.65;101613.16;6374616;22;20038;-75
2024/04/22 08:09:07;;;;;;;0.00;0.00;;;;;;;12.68;48.65;101611.75;6296098;22;19995;-75
2024/04/22 08:11:36;;;;;;;0.00;0.00;;;;;;;13.01;48.57;101666.88;6337606;22;20059;-75
2024/04/22 08:30:16;;;;;;;0.00;0.00;;;;;;;14.16;46.00;101629.53;6422482;22;20035;-76
2024/04/22 08:32:42;;;;;;;0.00;0.00;;;;;;;14.10;45.22;101612.97;6382807;22;20002;-76
2024/04/22 08:35:17;;;;;;;;;;;;;;;;;;;;;
2024/04/22 08:38:03;;;;;;;0.00;0.00;;;;;;;14.37;45.00;101660.78;6427374;22;20006;-75
2024/04/22 08:43:53;;;;;;;;;;;;;;;;;;;;;
2024/04/22 08:46:45;;;;;;;0.00;0.00;;;;;;;13.99;44.51;101602.97;6426925;22;19999;-75
2024/04/22 08:49:23;;;;;;;;;;;;;;;;;;;;;
2024/04/22 08:52:19;;;;;;;;;;;;;;;;;;;;;
2024/04/22 08:54:50;;;;;;;0.00;0.00;;;;;;;15.79;41.71;101628.09;6398660;22;19991;-77
2024/04/22 08:57:18;;;;;;;0.00;0.00;;;;;;;16.74;41.26;101651.59;6341263;22;20006;-76
2024/04/22 09:00:07;;;;;;;0.00;0.00;;;;;;;17.19;39.80;101630.53;6380378;22;20022;-77
2024/04/22 09:02:50;;;;;;;0.00;0.00;;;;;;;17.00;38.57;101621.22;6395496;22;20418;-76
2024/04/22 09:05:44;;;;;;;0.00;0.00;;;;;;;16.60;38.67;101600.81;6422320;22;20002;-76
2024/04/22 09:08:35;;;;;;;;;;;;;;;;;;;;;
2024/04/22 09:11:28;;;;;;;0.00;0.00;;;;;;;16.55;39.27;101604.41;6426130;22;20006;-76
2024/04/22 09:14:03;;;;;;;0.00;0.00;;;;;;;16.79;39.09;101637.78;6427098;22;19999;-76
2024/04/22 09:16:28;;;;;;;0.00;0.00;;;;;;;16.49;39.17;101611.88;6379841;22;20006;-75
2024/04/22 09:18:54;;;;;;;0.00;0.00;;;;;;;16.47;39.44;101622.38;6341609;22;20432;-74
2024/04/22 09:21:19;;;;;;;0.00;0.00;;;;;;;16.33;39.35;101624.84;6378723;22;20019;-73
2024/04/22 09:24:20;;;;;;;0.00;0.00;;;;;;;16.10;39.54;101631.72;6338849;22;20014;-74
2024/04/22 09:27:39;;;;;;;;;;;;;;;;;;;;;
2024/04/22 09:33:55;;;;;;;;;;;;;;;;;;;;;
2024/04/22 09:37:04;;;;;;;0.00;0.00;;;;;;;15.83;40.33;101648.50;6216804;22;20011;-74
2024/04/22 09:42:31;;;;;;;0.00;0.00;;;;;;;15.38;40.21;101603.94;6255245;22;19997;-74
2024/04/22 09:53:30;;;;;;;;;;;;;;;;;;;;;
2024/04/22 10:24:43;;;;;;;0.00;0.00;;;;;;;17.58;38.49;101574.53;5789620;24;20012;-74
2024/04/22 10:27:13;;;;;;;0.00;0.00;;;;;;;17.82;38.96;101618.09;5844344;24;20467;-73
2024/04/22 10:29:58;;;;;;;0.00;0.00;;;;;;;17.08;38.54;101568.13;5881046;24;20021;-73
2024/04/22 10:35:49;;;;;;;;;;;;;;;;;;;;;
2024/04/22 10:38:46;;;;;;;;;;;;;;;;;;;;;
2024/04/22 10:41:19;;;;;;;;;;;;;;;;;;;;;
2024/04/22 10:43:45;;;;;;;0.00;0.00;;;;;;;16.67;40.11;101593.88;6100143;23;20003;-75
2024/04/22 10:46:21;;;;;;;;;;;;;;;;;;;;;
2024/04/22 10:49:47;;;;;;;;;;;;;;;;;;;;;
2024/04/22 10:52:13;;;;;;;0.00;0.00;;;;;;;16.42;41.07;101561.63;6427551;22;20006;-74
2024/04/22 10:54:48;;;;;;;;;;;;;;;;;;;;;
2024/04/22 10:57:21;;;;;;;0.00;0.00;;;;;;;16.82;40.97;101611.53;6425439;22;20021;-74
2024/04/22 11:00:06;;;;;;;0.00;0.00;;;;;;;16.89;41.08;101609.34;6338095;22;20081;-75
2024/04/22 11:02:33;;;;;;;0.00;0.00;;;;;;;16.47;41.33;101583.72;6380719;22;20425;-75
2024/04/22 11:04:59;;;;;;;0.00;0.00;;;;;;;15.96;41.91;101572.66;6382088;22;19998;-72
2024/04/22 11:07:33;;;;;;;0.00;0.00;;;;;;;15.53;42.34;101564.56;6342381;22;20033;-73
2024/04/22 11:10:04;;;;;;;0.00;0.00;;;;;;;15.25;43.13;101593.41;6380411;22;19994;-74
2024/04/22 11:12:30;;;;;;;0.00;0.00;;;;;;;15.08;43.80;101569.63;6383550;22;20422;-75
2024/04/22 11:15:07;;;;;;;;;;;;;;;;;;;;;
2024/04/22 11:17:42;;;;;;;0.00;0.00;;;;;;;15.48;44.10;101573.66;6424250;22;20002;-74
2024/04/22 11:20:19;;;;;;;;;;;;;;;;;;;;;
2024/04/22 11:22:47;;;;;;;0.00;0.00;;;;;;;15.99;44.32;101558.31;6424194;22;20002;-74
2024/04/22 11:28:08;;;;;;;0.00;0.00;;;;;;;16.41;43.07;101543.41;6394215;22;20047;-74
2024/04/22 11:30:34;;;;;;;0.00;0.00;;;;;;;16.44;42.83;101559.44;6380987;22;20030;-74
2024/04/22 11:33:15;;;;;;;0.00;0.00;;;;;;;16.09;42.82;101552.81;6382753;22;20013;-74
2024/04/22 11:35:43;;;;;;;0.00;0.00;;;;;;;15.65;43.13;101548.63;6301753;22;20009;-74
2024/04/22 11:38:28;;;;;;;;;;;;;;;;;;;;;
2024/04/22 11:40:54;;;;;;;0.00;0.00;;;;;;;14.71;44.51;101536.69;6381164;22;19998;-74
2024/04/22 11:43:19;;;;;;;0.00;0.00;;;;;;;14.79;44.38;101519.63;6423267;22;20555;-74
2024/04/22 11:45:45;;;;;;;0.00;0.00;;;;;;;15.10;44.89;101547.31;6379723;22;20017;-74
2024/04/22 11:48:10;;;;;;;0.00;0.00;;;;;;;15.26;44.60;101549.06;6381612;22;20009;-74
2024/04/22 11:50:36;;;;;;;0.00;0.00;;;;;;;15.32;44.74;101531.44;6340389;22;20928;-75
2024/04/22 11:53:01;;;;;;;0.00;0.00;;;;;;;15.30;44.81;101510.75;6425422;22;20414;-73
2024/04/22 11:55:34;;;;;;;0.00;0.00;;;;;;;15.54;44.79;101519.38;6338378;22;20410;-77
2024/04/22 11:58:03;;;;;;;0.00;0.00;;;;;;;15.44;45.46;101541.41;6423654;22;20009;-74
2024/04/22 12:01:03;;;;;;;;;;;;;;;;;;;;;
2024/04/22 12:04:07;;;;;;;0.00;0.00;;;;;;;14.79;46.58;101530.66;6425680;22;20266;-76
2024/04/22 12:20:17;;;;;;;;;;;;;;;;;;;;;
2024/04/22 12:23:06;;;;;;;0.00;0.00;;;;;;;15.07;46.59;101523.91;6422266;22;20441;-74
2024/04/22 12:26:15;;;;;;;0.00;0.00;;;;;;;14.64;47.23;101490.94;6373119;22;20006;-74
2024/04/22 12:28:41;;;;;;;0.00;0.00;;;;;;;14.58;47.64;101480.16;6378152;22;20006;-74
2024/04/22 12:31:09;;;;;;;0.00;0.00;;;;;;;14.66;47.90;101487.94;6421039;22;19994;-74
2024/04/22 12:33:44;;;;;;;0.00;0.00;;;;;;;15.14;47.84;101516.22;6378632;22;20081;-74
2024/04/22 12:36:10;;;;;;;0.00;0.00;;;;;;;15.30;48.01;101513.50;6376359;22;20013;-75
2024/04/22 12:38:35;;;;;;;0.00;0.00;;;;;;;15.58;47.50;101519.63;6378770;22;20007;-75
2024/04/22 12:41:08;;;;;;;0.00;0.00;;;;;;;15.42;47.47;101500.31;6375584;22;20073;-73
2024/04/22 12:43:33;;;;;;;0.00;0.00;;;;;;;15.24;47.56;101481.53;6383795;22;20035;-73
2024/04/22 12:46:14;;;;;;;0.00;0.00;;;;;;;15.13;48.29;101514.56;6376226;22;20002;-75
2024/04/22 12:51:24;;;;;;;0.00;0.00;;;;;;;14.37;48.77;101501.19;6422591;22;20014;-73
2024/04/22 12:53:49;;;;;;;0.00;0.00;;;;;;;14.17;49.27;101496.41;6381571;22;19995;-74
2024/04/22 12:56:14;;;;;;;0.00;0.00;;;;;;;14.11;49.93;101496.34;6336715;22;19998;-73
2024/04/22 12:58:50;;;;;;;0.00;0.00;;;;;;;14.13;50.07;101491.44;6380850;22;20010;-72
2024/04/22 13:01:23;;;;;;;0.00;0.00;;;;;;;14.35;49.97;101497.91;6377541;22;20009;-73
2024/04/22 13:03:49;;;;;;;0.00;0.00;;;;;;;14.26;49.82;101468.13;6381586;22;20009;-75
2024/04/22 13:06:24;;;;;;;0.00;0.00;;;;;;;14.37;49.65;101469.03;6378951;22;19999;-75
2024/04/22 13:08:57;;;;;;;0.00;0.00;;;;;;;14.12;49.94;101462.28;6380845;22;20306;-73
2024/04/22 13:11:22;;;;;;;0.00;0.00;;;;;;;14.34;50.33;101499.84;6379458;22;20003;-74
2024/04/22 13:13:56;;;;;;;0.00;0.00;;;;;;;14.03;49.68;101441.00;6339313;22;19998;-73
2024/04/22 13:16:37;;;;;;;;;;;;;;;;;;;;;
2024/04/22 13:19:11;;;;;;;0.00;0.00;;;;;;;14.66;50.14;101488.75;6425042;22;20003;-73
2024/04/22 13:21:44;;;;;;;0.00;0.00;;;;;;;14.91;49.66;101467.09;6381875;22;20007;-75
2024/04/22 13:24:12;;;;;;;0.00;0.00;;;;;;;15.15;48.96;101468.28;6340414;22;19998;-74
2024/04/22 13:26:37;;;;;;;0.00;0.00;;;;;;;15.03;48.90;101431.91;6300029;22;20318;-74
2024/04/22 13:29:03;;;;;;;0.00;0.00;;;;;;;15.21;48.99;101449.00;6379384;22;20429;-74
2024/04/22 13:31:28;;;;;;;0.00;0.00;;;;;;;15.26;49.20;101457.28;6383235;22;19999;-74
2024/04/22 13:33:57;;;;;;;0.00;0.00;;;;;;;15.33;48.87;101452.34;6425439;22;19999;-75
2024/04/22 13:36:22;;;;;;;0.00;0.00;;;;;;;15.39;48.85;101440.25;6382999;22;20013;-73
2024/04/22 13:39:51;;;;;;;;;;;;;;;;;;;;;
2024/04/22 13:42:31;;;;;;;0.00;0.00;;;;;;;15.23;48.80;101446.81;6133453;23;19999;-74
2024/04/22 13:44:57;;;;;;;0.00;0.00;;;;;;;14.90;48.83;101432.41;6381036;22;20017;-73
2024/04/22 13:47:25;;;;;;;0.00;0.00;;;;;;;14.21;48.89;101415.84;6381886;22;20467;-75
2024/04/22 13:49:55;;;;;;;0.00;0.00;;;;;;;13.68;50.56;101437.75;6382289;22;19994;-74
2024/04/22 13:52:51;;;;;;;;;;;;;;;;;;;;;
2024/04/22 13:55:20;;;;;;;0.00;0.00;;;;;;;12.63;52.67;101408.63;6425688;22;20002;-75
2024/04/22 13:58:00;;;;;;;0.00;0.00;;;;;;;12.68;53.27;101438.88;6380117;22;20003;-75
2024/04/22 14:00:48;;;;;;;0.00;0.00;;;;;;;12.18;53.91;101385.84;6307201;22;20010;-75
2024/04/22 14:03:50;;;;;;;;;;;;;;;;;;;;;
2024/04/22 14:06:18;;;;;;;0.00;0.00;;;;;;;12.27;54.61;101410.09;6410715;22;19998;-73
2024/04/22 14:08:45;;;;;;;0.00;0.00;;;;;;;12.25;55.00;101432.28;6378317;22;20307;-74
2024/04/22 14:11:11;;;;;;;0.00;0.00;;;;;;;12.15;55.15;101399.22;6381278;22;20003;-74
2024/04/22 14:13:44;;;;;;;0.00;0.00;;;;;;;12.13;55.93;101420.56;6380726;22;20643;-75
2024/04/22 14:16:12;;;;;;;0.00;0.00;;;;;;;11.91;56.42;101390.34;6384340;22;20010;-75
2024/04/22 14:18:40;;;;;;;0.00;0.00;;;;;;;12.10;56.07;101421.09;6383415;22;20011;-75
2024/04/22 14:21:19;;;;;;;;;;;;;;;;;;;;;
2024/04/22 14:23:45;;;;;;;0.10;0.10;;;;;;;11.39;57.52;101385.97;6427372;22;20444;-76
2024/04/22 14:26:24;;;;;;;;;;;;;;;;;;;;;
2024/04/22 14:28:58;;;;;;;0.00;0.00;;;;;;;11.32;58.16;101395.16;6427209;22;20599;-75
2024/04/22 14:31:31;;;;;;;0.00;0.00;;;;;;;10.90;58.93;101342.69;6383262;22;19998;-75
2024/04/22 14:36:58;;;;;;;;;;;;;;;;;;;;;
2024/04/22 14:40:05;;;;;;;0.00;0.00;;;;;;;10.99;59.45;101380.38;6429515;22;20500;-75
2024/04/22 14:42:46;;;;;;;;;;;;;;;;;;;;;
2024/04/22 14:45:55;;;;;;;0.00;0.00;;;;;;;10.75;60.07;101378.81;6388071;22;20310;-75
2024/04/22 14:48:21;;;;;;;0.00;0.00;;;;;;;10.75;60.59;101392.47;6353038;22;20014;-75
2024/04/22 14:54:21;;;;;;;0.00;0.00;;;;;;;10.75;60.78;101367.88;6383559;22;20006;-74
2024/04/22 14:56:52;;;;;;;0.00;0.00;;;;;;;10.85;60.69;101356.25;6344895;22;20002;-75
2024/04/22 14:59:17;;;;;;;0.00;0.00;;;;;;;11.12;60.90;101383.84;6386026;22;20010;-74
2024/04/22 15:01:58;;;;;;;;;;;;;;;;;;;;;
2024/04/22 15:04:34;;;;;;;0.00;0.00;;;;;;;11.06;60.72;101349.25;6389654;22;20014;-75
2024/04/22 15:07:00;;;;;;;0.00;0.00;;;;;;;11.24;60.51;101375.56;6341321;22;20031;-75
2024/04/22 15:09:41;;;;;;;;;;;;;;;;;;;;;
2024/04/22 15:12:07;;;;;;;0.00;0.00;;;;;;;11.36;60.49;101351.69;6384394;22;20009;-74
2024/04/22 15:14:33;;;;;;;0.00;0.00;;;;;;;11.49;60.47;101377.91;6426177;22;19998;-75
2024/04/22 15:17:04;;;;;;;0.00;0.00;;;;;;;11.44;60.93;101377.84;6381503;22;20017;-75
2024/04/22 15:19:29;;;;;;;0.00;0.00;;;;;;;11.44;60.98;101370.44;6339782;22;20013;-73
2024/04/22 15:21:55;;;;;;;0.00;0.00;;;;;;;11.34;60.72;101354.66;6429825;22;19999;-75
2024/04/22 15:24:20;;;;;;;0.00;0.00;;;;;;;11.40;61.03;101355.56;6380345;22;19994;-74
2024/04/22 15:26:46;;;;;;;0.00;0.00;;;;;;;11.47;60.91;101353.50;6383590;22;20077;-75
2024/04/22 15:29:11;;;;;;;0.00;0.00;;;;;;;11.45;60.79;101338.44;6341401;22;20017;-74
2024/04/22 15:31:47;;;;;;;0.00;0.00;;;;;;;11.54;60.98;101339.66;6426129;22;19998;-75
2024/04/22 15:34:15;;;;;;;0.00;0.00;;;;;;;11.48;61.03;101332.44;6305684;22;20426;-74
2024/04/22 15:36:47;;;;;;;0.00;0.00;;;;;;;11.48;61.07;101337.91;6382750;22;20027;-75
2024/04/22 15:39:36;;;;;;;0.10;0.10;;;;;;;11.40;61.16;101344.63;6345321;22;20003;-75
2024/04/22 15:42:05;;;;;;;0.00;0.00;;;;;;;11.45;61.64;101349.38;6324208;22;19990;-74
2024/04/22 15:47:16;;;;;;;0.03;0.03;;;;;;;11.33;61.36;101320.16;6357796;22;19994;-74
2024/04/22 15:49:42;;;;;;;0.00;0.00;;;;;;;11.31;61.57;101327.78;6381479;22;20006;-76
2024/04/22 15:52:25;;;;;;;0.00;0.00;;;;;;;11.40;61.91;101343.81;6426023;22;20009;-76
2024/04/22 15:55:23;;;;;;;0.00;0.00;;;;;;;11.23;61.73;101336.44;6379626;22;20003;-74
2024/04/22 15:57:49;;;;;;;0.00;0.00;;;;;;;11.17;62.22;101323.75;6351453;22;20014;-74
2024/04/22 16:00:14;;;;;;;0.00;0.00;;;;;;;11.32;62.37;101345.88;6381600;22;20289;-75
2024/04/22 16:02:40;;;;;;;0.00;0.00;;;;;;;11.23;62.53;101308.19;6340939;22;19998;-75
2024/04/22 16:05:07;;;;;;;0.10;0.10;;;;;;;11.53;62.46;101348.94;6379925;22;20069;-74
2024/04/22 16:07:33;;;;;;;0.00;0.00;;;;;;;11.48;62.41;101316.00;6425207;22;20337;-75
2024/04/22 16:10:01;;;;;;;0.08;0.08;;;;;;;11.85;62.22;101342.84;6420057;22;19994;-76
2024/04/22 16:12:26;;;;;;;0.00;0.00;;;;;;;11.65;62.11;101283.94;6301178;22;20497;-75
2024/04/22 16:14:57;;;;;;;0.00;0.00;;;;;;;12.16;61.67;101324.09;6341350;22;20007;-74
2024/04/22 16:17:23;;;;;;;0.00;0.00;;;;;;;12.37;61.15;101312.31;6374809;22;20038;-76
2024/04/22 16:20:04;;;;;;;;;;;;;;;;;;;;;
2024/04/22 16:22:50;;;;;;;;;;;;;;;;;;;;;
2024/04/22 16:41:42;;;;;;;0.00;0.00;;;;;;;11.76;62.53;101262.16;6342025;22;20011;-76
2024/04/22 16:54:19;;;;;;;0.00;0.00;;;;;;;11.42;63.52;101237.56;6429872;22;19926;-77
2024/04/22 16:56:47;;;;;;;0.00;0.00;;;;;;;11.48;63.64;101242.88;6381905;22;20013;-78
2024/04/22 16:59:23;;;;;;;;;;;;;;;;;;;;;
2024/04/22 17:01:54;;;;;;;0.00;0.00;;;;;;;11.72;64.16;101291.97;6421393;22;19995;-77
2024/04/22 17:04:22;;;;;;;0.00;0.00;;;;;;;11.54;64.47;101265.69;6382975;22;20006;-74
2024/04/22 17:06:47;;;;;;;0.00;0.00;;;;;;;11.74;64.26;101291.72;6341467;22;20054;-75
2024/04/22 17:12:48;;;;;;;0.00;0.00;;;;;;;11.49;64.73;101251.91;6424977;22;20006;-75
2024/04/22 17:15:27;;;;;;;0.00;0.00;;;;;;;11.58;64.97;101272.34;6383298;22;19999;-75
2024/04/22 17:17:55;;;;;;;0.00;0.00;;;;;;;11.56;65.12;101263.53;6424723;22;20789;-73
2024/04/22 17:20:38;;;;;;;0.00;0.00;;;;;;;11.49;65.20;101287.53;6384888;22;20017;-74
2024/04/22 17:23:17;;;;;;;0.00;0.00;;;;;;;11.26;65.57;101252.97;6388308;22;20006;-73
2024/04/22 17:25:42;;;;;;;0.00;0.00;;;;;;;11.20;65.42;101263.00;6385653;22;20009;-74
2024/04/22 17:28:18;;;;;;;0.00;0.00;;;;;;;11.23;66.16;101275.34;6425974;22;19998;-74
2024/04/22 17:31:21;;;;;;;0.00;0.00;;;;;;;11.06;66.32;101270.72;6425722;22;20293;-74
2024/04/22 17:34:01;;;;;;;0.00;0.00;;;;;;;10.96;66.47;101254.94;6382490;22;20006;-75
2024/04/22 18:15:59;;;;;;;0.00;0.00;;;;;;;10.57;69.51;101252.09;6430825;21;20009;-78
2024/04/22 18:18:24;;;;;;;0.00;0.00;;;;;;;10.40;69.64;101229.34;6385656;22;20458;-79
2024/04/22 18:20:52;;;;;;;0.00;0.00;;;;;;;10.52;70.00;101268.41;6342248;22;19999;-78
2024/04/22 18:23:29;;;;;;;0.00;0.00;;;;;;;10.21;70.43;101226.78;6346026;22;20022;-78
2024/04/22 18:26:45;;;;;;;;;;;;;;;;;;;;;
2024/04/22 18:29:20;;;;;;;0.00;0.00;;;;;;;9.99;70.86;101229.38;6410706;22;19987;-79
2024/04/22 18:31:45;;;;;;;0.00;0.00;;;;;;;9.94;71.17;101243.75;6388903;22;19991;-82
2024/04/22 18:34:11;;;;;;;0.00;0.00;;;;;;;9.91;71.39;101255.13;6383853;22;20013;-79
2024/04/22 18:36:40;;;;;;;0.00;0.00;;;;;;;9.93;71.66;101263.94;6384782;22;20370;-78
2024/04/22 18:39:11;;;;;;;0.00;0.00;;;;;;;9.88;72.07;101261.09;6342994;22;20070;-78
2024/04/22 18:41:36;;;;;;;0.10;0.10;;;;;;;9.77;72.42;101253.78;6343257;22;20002;-78
2024/04/22 18:44:23;;;;;;;0.00;0.00;;;;;;;9.69;72.67;101260.41;6345230;22;20002;-78
2024/04/22 19:14:04;;;;;;;0.00;0.00;;;;;;;9.33;75.29;101286.94;6423527;22;19997;-74
2024/04/22 19:16:29;;;;;;;0.00;0.00;;;;;;;9.30;75.54;101281.09;6382677;22;20022;-75
2024/04/22 19:19:00;;;;;;;0.00;0.00;;;;;;;9.18;76.22;101270.16;6381564;22;20005;-75
2024/04/22 19:21:27;;;;;;;0.00;0.00;;;;;;;9.03;76.56;101259.72;6304505;22;20017;-75
2024/04/22 19:24:25;;;;;;;0.00;0.00;;;;;;;9.12;76.74;101291.03;6381605;22;19999;-77
2024/04/22 19:26:58;;;;;;;0.10;0.10;;;;;;;8.85;76.99;101253.28;6380231;22;20078;-75
2024/04/22 19:29:26;;;;;;;0.00;0.00;;;;;;;8.81;77.28;101256.72;6425714;22;20017;-76
2024/04/22 19:32:20;;;;;;;0.00;0.00;;;;;;;8.74;77.83;101249.44;6382941;22;20031;-75
2024/04/22 19:35:06;;;;;;;0.00;0.00;;;;;;;8.72;77.50;101253.50;6382286;22;20005;-75
2024/04/22 19:37:36;;;;;;;0.00;0.00;;;;;;;8.79;78.08;101280.66;6379389;22;20013;-74
2024/04/22 19:40:01;;;;;;;0.00;0.00;;;;;;;8.63;78.06;101265.78;6426635;22;19995;-74
2024/04/22 19:46:17;;;;;;;;;;;;;;;;;;;;;
2024/04/22 19:49:10;;;;;;;0.00;0.00;;;;;;;8.70;78.97;101308.28;6388192;22;20390;-73
2024/04/22 19:52:10;;;;;;;;;;;;;;;;;;;;;
2024/04/22 19:58:36;;;;;;;;;;;;;;;;;;;;;
2024/04/22 20:05:36;;;;;;;;;;;;;;;;;;;;;
2024/04/22 20:08:19;;;;;;;0.00;0.00;;;;;;;8.27;81.40;101305.69;6367268;22;20006;-75
2024/04/22 20:14:13;;;;;;;;;;;;;;;;;;;;;
2024/04/22 20:17:09;;;;;;;;;;;;;;;;;;;;;
2024/04/22 20:37:31;;;;;;;;;;;;;;;;;;;;;
2024/04/22 20:40:00;;;;;;;0.00;0.00;;;;;;;7.47;84.36;101313.63;6181429;23;20006;-74
2024/04/22 20:42:25;;;;;;;0.03;0.03;;;;;;;7.18;84.72;101268.91;6400870;22;20005;-74
2024/04/22 20:45:21;;;;;;;0.00;0.00;;;;;;;7.26;84.94;101295.03;6338189;22;20002;-74
2024/04/22 20:51:14;;;;;;;0.00;0.00;;;;;;;6.95;86.01;101283.09;6349278;22;20073;-74
2024/04/22 20:54:21;;;;;;;0.05;0.05;;;;;;;6.85;86.36;101272.75;6380597;22;20010;-76
2024/04/22 20:57:07;;;;;;;0.00;0.00;;;;;;;6.82;86.42;101274.00;6177457;23;20009;-77
2024/04/22 20:59:51;;;;;;;;;;;;;;;;;;;;;
2024/04/22 21:02:20;;;;;;;;;;;;;;;7.01;86.26;101298.56;6427238;22;19999;-74
2024/04/22 21:04:57;;;;;;;0.00;0.00;;;;;;;6.87;86.72;101283.41;6379407;22;19915;-76
2024/04/22 21:10:56;;;;;;;;;;;;;;;;;;;;;
2024/04/22 21:13:55;;;;;;;0.00;0.00;;;;;;;6.62;87.24;101267.88;6426766;22;20637;-75
2024/04/22 21:27:43;;;;;;;;;;;;;;;;;;;;;
2024/04/22 21:30:38;;;;;;;;;;;;;;;;;;;;;
2024/04/22 21:34:04;;;;;;;0.00;0.00;;;;;;;6.88;88.33;101301.34;6133387;23;20016;-77
2024/04/22 21:40:08;;;;;;;0.00;0.00;;;;;;;6.56;88.72;101260.59;6000424;23;20097;-76
2024/04/22 21:42:45;;;;;;;0.00;0.00;;;;;;;6.78;88.94;101308.13;6051645;23;20015;-75
2024/04/22 21:45:11;;;;;;;0.00;0.00;;;;;;;6.76;89.43;101299.38;6216869;23;19993;-75
2024/04/22 21:47:54;;;;;;;0.00;0.00;;;;;;;6.39;89.13;101242.09;6175569;23;20008;-75
2024/04/22 21:50:24;;;;;;;0.00;0.00;;;;;;;6.67;89.49;101262.59;6185337;23;20003;-74
2024/04/22 21:52:59;;;;;;;0.00;0.00;;;;;;;6.78;89.56;101277.41;6189883;23;20017;-74
2024/04/22 21:55:57;;;;;;;0.00;0.00;;;;;;;6.68;89.38;101250.69;6228444;23;20445;-74
2024/04/22 21:59:02;;;;;;;0.00;0.00;;;;;;;6.96;89.71;101295.66;6192718;23;20008;-74
2024/04/22 22:02:04;;;;;;;0.00;0.00;;;;;;;6.95;89.44;101299.41;6186109;23;20323;-76
2024/04/22 22:05:10;;;;;;;0.10;0.10;;;;;;;6.93;89.33;101290.66;6189039;23;20001;-75
2024/04/22 22:07:35;;;;;;;0.00;0.00;;;;;;;6.93;89.66;101296.09;6261239;22;20011;-75
2024/04/22 22:10:01;;;;;;;0.00;0.00;;;;;;;6.92;89.57;101295.28;6372968;22;20027;-73
2024/04/22 22:12:27;;;;;;;0.00;0.00;;;;;;;6.78;89.94;101267.34;6329893;22;20010;-74
2024/04/22 22:14:52;;;;;;;0.00;0.00;;;;;;;6.72;89.54;101257.34;6293114;22;19991;-73
2024/04/22 22:17:29;;;;;;;0.00;0.00;;;;;;;6.94;90.11;101287.72;6329220;22;19995;-74
2024/04/22 22:19:55;;;;;;;0.00;0.00;;;;;;;6.72;90.01;101256.53;6296721;22;20256;-73
2024/04/22 22:22:42;;;;;;;;;;;;;;;;;;;;;
2024/04/22 22:25:28;;;;;;;;;;;;;;;;;;;;;
2024/04/22 22:28:12;;;;;;;0.00;0.00;;;;;;;6.62;90.10;101237.97;6373872;22;20414;-76
2024/04/22 22:30:48;;;;;;;0.00;0.00;;;;;;;6.79;90.10;101268.16;6263712;22;20078;-78
2024/04/22 22:33:38;;;;;;;0.08;0.08;;;;;;;6.69;90.57;101255.09;6339161;22;20139;-81
2024/04/22 22:36:06;;;;;;;0.00;0.00;;;;;;;6.58;90.36;101223.16;6377371;22;20031;-81
2024/04/22 22:42:47;;;;;;;;;;;;;;;;;;;;;
2024/04/22 22:45:13;;;;;;;0.00;0.00;;;;;;;6.99;90.47;101285.19;6431449;22;20027;-80
2024/04/22 22:47:39;;;;;;;0.00;0.00;;;;;;;7.01;90.04;101298.56;6388553;22;19999;-85
2024/04/22 22:50:05;;;;;;;0.00;0.00;;;;;;;6.84;90.25;101260.19;6393275;22;20002;-83
2024/04/22 22:52:31;;;;;;;0.10;0.10;;;;;;;6.86;90.26;101268.13;6390093;22;19994;-84
2024/04/22 22:55:09;;;;;;;;;;;;;;;;;;;;;
2024/04/22 22:57:45;;;;;;;;;;;;;;;;;;;;;